Time;durP1;ratioP1;P1;durP2;ratioP2;P2;SDS_P1;SDS_P2;PMS_P1;PMS_P2;Temp;Humidity;BMP_temperature;BMP_pressure;BME280_temperature;BME280_humidity;BME280_pressure;Samples;Min_cycle;Max_cycle;Signal;HPM_P1;HPM_P2
2022/06/23 00:00:46;;;;;;;7.90;5.28;;;;;;;18.29;57.66;101140.91;5078510;28;20028;-56
2022/06/23 00:03:19;;;;;;;12.13;5.50;;;;;;;18.30;57.87;101139.03;5071282;28;20032;-55
2022/06/23 00:05:51;;;;;;;7.40;5.07;;;;;;;18.26;58.35;101136.78;5073094;28;20020;-57
2022/06/23 00:08:16;;;;;;;10.65;5.15;;;;;;;18.23;58.33;101139.88;5070360;28;20031;-56
2022/06/23 00:10:47;;;;;;;8.50;5.35;;;;;;;18.19;58.68;101138.63;5073726;28;20016;-56
2022/06/23 00:13:15;;;;;;;7.43;5.10;;;;;;;18.14;59.23;101133.09;5071657;28;20028;-56
2022/06/23 00:15:43;;;;;;;9.80;6.10;;;;;;;18.15;59.18;101128.53;5071683;28;20655;-56
2022/06/23 00:18:22;;;;;;;11.25;6.20;;;;;;;18.16;59.58;101132.88;5068969;28;20024;-56
2022/06/23 00:20:55;;;;;;;11.60;6.60;;;;;;;18.15;60.00;101132.03;5071846;28;20133;-56
2022/06/23 00:23:23;;;;;;;10.18;5.95;;;;;;;18.11;60.11;101121.94;5075575;28;20036;-56
2022/06/23 00:25:54;;;;;;;11.73;6.10;;;;;;;18.06;60.18;101129.81;5071463;28;20175;-56
2022/06/23 00:28:24;;;;;;;10.90;6.13;;;;;;;18.04;60.96;101135.41;5070541;28;20294;-55
2022/06/23 00:30:58;;;;;;;12.32;6.57;;;;;;;18.01;61.07;101125.09;5070338;28;20031;-56
2022/06/23 00:33:27;;;;;;;9.75;6.45;;;;;;;17.99;61.52;101123.66;5081048;28;20040;-55
2022/06/23 00:35:54;;;;;;;10.57;6.38;;;;;;;18.00;61.66;101111.88;5072513;28;20027;-55
2022/06/23 00:38:25;;;;;;;13.38;6.63;;;;;;;17.97;62.26;101117.66;5077884;28;20050;-54
2022/06/23 00:40:52;;;;;;;12.05;6.68;;;;;;;17.89;62.35;101118.69;5071878;28;20115;-54
2022/06/23 00:43:19;;;;;;;13.15;6.82;;;;;;;17.88;62.91;101120.56;5075204;28;20036;-55
2022/06/23 00:45:52;;;;;;;11.10;6.38;;;;;;;17.86;63.04;101129.88;5074272;28;20487;-56
2022/06/23 00:48:26;;;;;;;12.10;7.13;;;;;;;17.83;63.17;101124.94;5073702;28;20059;-55
2022/06/23 00:51:09;;;;;;;17.27;7.18;;;;;;;17.82;63.78;101129.47;5070138;28;20119;-56
2022/06/23 00:53:48;;;;;;;13.30;6.93;;;;;;;17.77;64.19;101131.16;5071432;28;20028;-55
2022/06/23 00:56:50;;;;;;;14.23;7.32;;;;;;;17.78;64.19;101130.13;5069862;28;20110;-56
2022/06/23 00:59:21;;;;;;;14.85;8.07;;;;;;;17.67;64.79;101128.91;5071956;28;20028;-55
2022/06/23 01:02:07;;;;;;;11.95;7.28;;;;;;;17.65;64.75;101112.97;5074328;28;20105;-55
2022/06/23 01:04:47;;;;;;;15.05;7.60;;;;;;;17.59;64.73;101132.59;5068437;28;20589;-55
2022/06/23 01:07:30;;;;;;;14.93;7.82;;;;;;;17.54;65.17;101118.16;5073065;28;20025;-55
2022/06/23 01:10:06;;;;;;;13.20;7.70;;;;;;;17.51;65.60;101114.03;5073193;28;20032;-55
2022/06/23 01:12:38;;;;;;;17.77;8.07;;;;;;;17.47;65.73;101112.78;5074087;28;20068;-54
2022/06/23 01:15:28;;;;;;;11.00;7.88;;;;;;;17.49;66.41;101117.94;5073845;28;21607;-56
2022/06/23 01:18:19;;;;;;;14.25;8.07;;;;;;;17.52;66.26;101110.31;5067841;28;20086;-56
2022/06/23 01:21:00;;;;;;;11.48;7.70;;;;;;;17.55;66.19;101104.50;5065272;28;20035;-56
2022/06/23 01:23:56;;;;;;;13.23;7.78;;;;;;;17.60;66.66;101102.00;5069148;28;20534;-55
2022/06/23 01:26:43;;;;;;;16.92;7.70;;;;;;;17.54;66.79;101105.53;5072703;28;20104;-54
2022/06/23 01:29:18;;;;;;;15.88;8.35;;;;;;;17.48;66.67;101105.56;5074373;28;20038;-55
2022/06/23 01:31:48;;;;;;;13.27;8.10;;;;;;;17.47;67.02;101101.22;5072560;28;20562;-57
2022/06/23 01:34:16;;;;;;;14.88;8.55;;;;;;;17.46;67.01;101092.34;5074633;28;20294;-55
2022/06/23 01:36:48;;;;;;;13.73;7.97;;;;;;;17.49;67.43;101096.47;5072943;28;20584;-56
2022/06/23 01:39:16;;;;;;;15.63;8.45;;;;;;;17.40;67.61;101095.88;5067409;28;20028;-55
2022/06/23 01:41:42;;;;;;;14.05;8.68;;;;;;;17.35;67.77;101098.38;5070595;28;20059;-56
2022/06/23 01:44:21;;;;;;;14.95;8.63;;;;;;;17.29;67.89;101101.88;5070911;28;20060;-56
2022/06/23 01:46:49;;;;;;;;;;;;;;;17.46;67.31;101107.63;5070197;28;20407;-55
2022/06/23 01:49:34;;;;;;;15.55;8.20;;;;;;;17.30;67.85;101111.56;5071648;28;19962;-54
2022/06/23 01:52:11;;;;;;;13.90;8.43;;;;;;;17.31;67.74;101115.91;5075784;28;20054;-56
2022/06/23 01:54:38;;;;;;;16.17;8.82;;;;;;;17.27;67.81;101112.81;5073268;28;20077;-55
2022/06/23 01:57:26;;;;;;;18.77;8.70;;;;;;;17.25;68.09;101108.69;5071593;28;20078;-55
2022/06/23 02:00:13;;;;;;;14.02;8.02;;;;;;;17.28;67.93;101105.56;5069447;28;20024;-56
2022/06/23 02:03:17;;;;;;;15.35;8.55;;;;;;;17.19;68.41;101112.19;5069334;28;20480;-56
2022/06/23 02:06:22;;;;;;;15.90;8.73;;;;;;;17.17;68.36;101111.59;5072619;28;20044;-56
2022/06/23 02:08:56;;;;;;;14.10;8.07;;;;;;;17.12;68.22;101103.34;5070628;28;20042;-55
2022/06/23 02:11:31;;;;;;;13.43;8.68;;;;;;;17.14;68.61;101101.28;5077010;28;20169;-56
2022/06/23 02:14:06;;;;;;;17.13;9.05;;;;;;;17.12;68.83;101100.66;5072912;28;20024;-56
2022/06/23 02:16:56;;;;;;;15.80;9.02;;;;;;;17.18;68.81;101099.81;5073784;28;20399;-56
2022/06/23 02:19:32;;;;;;;12.35;8.75;;;;;;;17.06;69.23;101104.13;5072525;28;20106;-55
2022/06/23 02:22:03;;;;;;;14.85;8.35;;;;;;;16.87;69.12;101105.81;5073686;28;20602;-56
2022/06/23 02:24:48;;;;;;;14.68;8.07;;;;;;;16.98;69.28;101103.31;5079174;28;20028;-56
2022/06/23 02:27:32;;;;;;;13.38;8.88;;;;;;;16.99;69.23;101104.16;5071054;28;20036;-55
2022/06/23 02:30:06;;;;;;;13.75;9.10;;;;;;;17.00;69.06;101105.78;5076806;28;20485;-55
2022/06/23 02:32:55;;;;;;;15.65;9.40;;;;;;;17.00;69.54;101101.25;5082095;28;20032;-56
2022/06/23 02:35:30;;;;;;;15.10;9.23;;;;;;;16.96;69.53;101101.88;5074284;28;20070;-56
2022/06/23 02:38:23;;;;;;;17.15;8.85;;;;;;;16.95;69.78;101097.53;5070470;28;20031;-56
2022/06/23 02:41:18;;;;;;;14.20;9.77;;;;;;;16.88;69.95;101102.09;5076163;28;20038;-54
2022/06/23 02:43:48;;;;;;;13.80;8.88;;;;;;;16.88;69.58;101097.53;5071792;28;20041;-53
2022/06/23 02:46:41;;;;;;;18.15;9.82;;;;;;;16.90;70.18;101100.03;5070696;28;20025;-56
2022/06/23 02:49:50;;;;;;;14.43;9.30;;;;;;;16.89;70.29;101093.00;5074825;28;20039;-55
2022/06/23 02:52:47;;;;;;;14.90;9.43;;;;;;;16.78;70.17;101097.13;5071721;28;20027;-55
2022/06/23 02:55:29;;;;;;;17.83;9.40;;;;;;;16.77;69.90;101090.13;5072506;28;20021;-56
2022/06/23 02:58:17;;;;;;;14.63;9.18;;;;;;;16.81;70.00;101082.50;5072412;28;20035;-56
2022/06/23 03:00:54;;;;;;;13.13;9.25;;;;;;;16.76;70.12;101083.06;5074530;28;20024;-56
2022/06/23 03:03:27;;;;;;;15.98;10.00;;;;;;;16.73;70.23;101080.81;5070125;28;20028;-55
2022/06/23 03:05:56;;;;;;;16.92;9.55;;;;;;;16.78;69.89;101077.53;5077647;28;20024;-56
2022/06/23 03:08:48;;;;;;;15.30;9.80;;;;;;;16.80;69.89;101073.63;5070894;28;20021;-56
2022/06/23 03:11:19;;;;;;;14.15;9.68;;;;;;;16.73;69.76;101078.94;5073194;28;20021;-56
2022/06/23 03:13:47;;;;;;;13.95;9.38;;;;;;;16.68;70.11;101076.06;5071860;28;20120;-56
2022/06/23 03:16:23;;;;;;;14.83;9.70;;;;;;;16.68;69.86;101075.25;5074951;28;20024;-55
2022/06/23 03:19:02;;;;;;;18.48;9.30;;;;;;;16.73;69.90;101073.59;5072071;28;20296;-56
2022/06/23 03:21:42;;;;;;;14.90;9.27;;;;;;;16.74;70.17;101066.38;5072970;28;20048;-55
2022/06/23 03:24:20;;;;;;;15.43;9.43;;;;;;;16.71;70.43;101064.09;5072633;28;20049;-55
2022/06/23 03:26:52;;;;;;;12.98;9.73;;;;;;;16.66;70.20;101064.72;5076055;28;20058;-56
2022/06/23 03:29:31;;;;;;;16.75;10.05;;;;;;;16.66;70.43;101072.75;5075058;28;20028;-53
2022/06/23 03:32:07;;;;;;;12.40;9.57;;;;;;;16.67;70.75;101071.72;5075187;28;20024;-55
2022/06/23 03:34:38;;;;;;;14.20;9.18;;;;;;;16.64;70.77;101063.25;5075700;28;20048;-55
2022/06/23 03:37:25;;;;;;;15.15;9.85;;;;;;;16.65;70.43;101062.22;5071254;28;20025;-56
2022/06/23 03:42:55;;;;;;;16.83;9.45;;;;;;;16.61;70.21;101048.38;5074668;28;20517;-55
2022/06/23 03:45:39;;;;;;;14.40;9.73;;;;;;;16.58;70.21;101056.03;5073624;28;20068;-56
2022/06/23 03:48:11;;;;;;;17.95;9.15;;;;;;;16.54;70.36;101057.47;5072807;28;20164;-55
2022/06/23 03:51:18;;;;;;;18.38;9.45;;;;;;;16.59;70.16;101060.34;5078001;28;20032;-55
2022/06/23 03:53:50;;;;;;;13.70;9.95;;;;;;;16.54;70.13;101066.34;5019432;28;20029;-56
2022/06/23 03:56:20;;;;;;;13.57;9.40;;;;;;;16.53;69.99;101063.88;5064956;28;20040;-53
2022/06/23 03:59:01;;;;;;;17.00;9.20;;;;;;;16.54;69.74;101057.47;5070282;28;20503;-56
2022/06/23 04:01:37;;;;;;;17.75;9.40;;;;;;;16.52;69.82;101062.22;5074751;28;20290;-55
2022/06/23 04:04:12;;;;;;;17.10;9.88;;;;;;;16.52;69.86;101067.56;5072500;28;20052;-55
2022/06/23 04:06:43;;;;;;;13.85;9.07;;;;;;;16.54;69.88;101073.56;5076755;28;20027;-55
2022/06/23 04:09:27;;;;;;;13.95;9.30;;;;;;;16.54;69.64;101076.22;5076736;28;20480;-56
2022/06/23 04:12:02;;;;;;;16.92;10.07;;;;;;;16.57;69.80;101078.50;5073109;28;20103;-55
2022/06/23 04:14:33;;;;;;;15.35;10.38;;;;;;;16.60;69.17;101073.56;5081744;28;20133;-55
2022/06/23 04:17:10;;;;;;;16.27;9.73;;;;;;;16.62;69.29;101068.81;5074196;28;20060;-56
2022/06/23 04:19:37;;;;;;;18.08;9.80;;;;;;;16.61;68.64;101069.03;5083827;28;20099;-56
2022/06/23 04:22:29;;;;;;;18.17;9.82;;;;;;;16.66;69.12;101062.03;5075153;28;20043;-55
2022/06/23 04:24:59;;;;;;;12.32;9.18;;;;;;;16.65;68.62;101067.56;5083362;28;20020;-56
2022/06/23 04:27:55;;;;;;;16.23;9.43;;;;;;;16.69;68.73;101066.97;5076551;28;20021;-55
2022/06/23 04:30:32;;;;;;;18.75;9.50;;;;;;;16.71;68.70;101072.16;5067438;28;20598;-55
2022/06/23 04:33:01;;;;;;;17.92;10.00;;;;;;;16.71;68.81;101074.81;5081411;28;20036;-56
2022/06/23 04:35:32;;;;;;;;;;;;;;;16.82;68.58;101076.09;5079595;28;20028;-55
2022/06/23 04:38:08;;;;;;;;;;;;;;;16.84;68.68;101077.53;5079883;28;19913;-55
2022/06/23 04:40:53;;;;;;;;;;;;;;;16.89;68.34;101077.75;5076708;28;19951;-55
2022/06/23 04:43:21;;;;;;;;;;;;;;;16.95;68.00;101066.19;5073914;28;19998;-54
2022/06/23 04:45:49;;;;;;;;;;;;;;;17.01;68.17;101075.25;5074245;28;19945;-56
2022/06/23 04:48:18;;;;;;;;;;;;;;;17.04;68.40;101075.66;5073257;28;19977;-55
2022/06/23 04:50:44;;;;;;;;;;;;;;;17.08;68.21;101059.16;5067207;28;19974;-55
2022/06/23 04:53:44;;;;;;;;;;;;;;;17.12;68.43;101066.59;5069613;28;20518;-55
2022/06/23 04:56:16;;;;;;;;;;;;;;;17.15;68.17;101065.34;5041459;28;19923;-54
2022/06/23 04:58:44;;;;;;;;;;;;;;;17.20;68.15;101063.69;5063743;28;19919;-55
2022/06/23 05:01:14;;;;;;;;;;;;;;;17.25;68.00;101065.72;5075825;28;19924;-55
2022/06/23 05:03:48;;;;;;;;;;;;;;;17.29;67.71;101083.91;5071388;28;20371;-56
2022/06/23 05:06:19;;;;;;;;;;;;;;;17.32;67.08;101071.91;5075177;28;19912;-55
2022/06/23 05:08:45;;;;;;;;;;;;;;;17.38;66.73;101076.47;5070973;28;19932;-56
2022/06/23 05:11:14;;;;;;;;;;;;;;;17.44;66.93;101085.53;5068016;28;19916;-56
2022/06/23 05:13:48;;;;;;;;;;;;;;;17.50;66.84;101090.88;5072644;28;20006;-54
2022/06/23 05:16:18;;;;;;;;;;;;;;;17.60;66.42;101075.16;5073805;28;20306;-55
2022/06/23 05:18:48;;;;;;;;;;;;;;;17.68;66.19;101070.63;5074712;28;20003;-55
2022/06/23 05:21:17;;;;;;;;;;;;;;;17.74;65.93;101073.31;5073099;28;19923;-54
2022/06/23 05:23:45;;;;;;;;;;;;;;;17.80;65.44;101079.69;5072587;28;20338;-55
2022/06/23 05:26:23;;;;;;;;;;;;;;;17.85;65.42;101075.31;5071377;28;19912;-56
2022/06/23 05:28:51;;;;;;;;;;;;;;;17.91;65.29;101070.94;5069101;28;19912;-55
2022/06/23 05:31:20;;;;;;;;;;;;;;;17.97;64.94;101078.19;5071891;28;19963;-55
2022/06/23 05:33:50;;;;;;;;;;;;;;;18.05;64.73;101083.31;5072829;28;19915;-56
2022/06/23 05:36:24;;;;;;;;;;;;;;;18.08;64.62;101077.50;5073091;28;20060;-55
2022/06/23 05:39:16;;;;;;;;;;;;;;;18.15;64.39;101077.47;5075528;28;19937;-58
2022/06/23 05:41:43;;;;;;;;;;;;;;;18.23;64.07;101072.69;5075759;28;19916;-57
2022/06/23 05:44:17;;;;;;;;;;;;;;;18.29;63.76;101067.47;5069838;28;20407;-57
2022/06/23 05:46:42;;;;;;;;;;;;;;;18.33;63.61;101074.06;5073290;28;20288;-57
2022/06/23 05:49:30;;;;;;;;;;;;;;;18.38;63.51;101067.00;5072717;28;19970;-57
2022/06/23 05:52:06;;;;;;;;;;;;;;;18.42;63.19;101070.06;5073208;28;19937;-58
2022/06/23 05:54:57;;;;;;;;;;;;;;;18.47;63.00;101064.88;5074433;28;19920;-57
2022/06/23 05:57:38;;;;;;;;;;;;;;;18.54;62.61;101061.13;5066458;28;19912;-57
2022/06/23 06:00:14;;;;;;;;;;;;;;;18.63;62.58;101071.63;5071090;28;20416;-57
2022/06/23 06:02:48;;;;;;;;;;;;;;;18.65;62.17;101073.06;5069401;28;19959;-56
2022/06/23 06:05:23;;;;;;;;;;;;;;;18.71;62.24;101076.75;5072768;28;19943;-57
2022/06/23 06:07:49;;;;;;;;;;;;;;;18.77;62.08;101063.22;5072518;28;19965;-57
2022/06/23 06:10:17;;;;;;;;;;;;;;;18.82;61.94;101065.28;5070280;28;19916;-56
2022/06/23 06:12:43;;;;;;;;;;;;;;;18.86;61.98;101072.69;5072009;28;19912;-57
2022/06/23 06:15:19;;;;;;;;;;;;;;;18.93;61.80;101063.75;5071826;28;20325;-57
2022/06/23 06:17:45;;;;;;;;;;;;;;;18.97;61.69;101073.84;5073554;28;19916;-56
2022/06/23 06:20:12;;;;;;;;;;;;;;;19.01;61.18;101075.03;5075116;28;19955;-57
2022/06/23 06:22:50;;;;;;;;;;;;;;;19.05;61.10;101072.72;5079775;28;20389;-56
2022/06/23 06:25:26;;;;;;;;;;;;;;;19.12;61.41;101076.22;5075954;28;19995;-55
2022/06/23 06:27:53;;;;;;;;;;;;;;;19.18;60.98;101068.06;5083011;28;20548;-55
2022/06/23 06:30:22;;;;;;;;;;;;;;;19.26;61.21;101074.19;5077915;28;19919;-55
2022/06/23 06:32:48;;;;;;;;;;;;;;;19.36;61.32;101071.81;5071653;28;19951;-55
2022/06/23 06:35:18;;;;;;;;;;;;;;;19.39;61.09;101068.69;5075186;28;19940;-55
2022/06/23 06:37:47;;;;;;;;;;;;;;;19.46;60.97;101070.28;5076517;28;19916;-55
2022/06/23 06:40:12;;;;;;;;;;;;;;;19.56;61.08;101063.56;5072976;28;19915;-55
2022/06/23 06:42:41;;;;;;;;;;;;;;;19.64;60.77;101074.03;5072464;28;19920;-56
2022/06/23 06:45:09;;;;;;;;;;;;;;;19.70;60.78;101063.22;5075402;28;19923;-56
2022/06/23 06:47:35;;;;;;;;;;;;;;;19.77;60.44;101066.63;5071407;28;19919;-55
2022/06/23 06:50:05;;;;;;;;;;;;;;;19.84;60.49;101066.56;5077160;28;20379;-55
2022/06/23 06:52:30;;;;;;;;;;;;;;;19.89;60.27;101073.97;5073466;28;19998;-55
2022/06/23 06:55:04;;;;;;;;;;;;;;;19.92;59.91;101074.31;5081759;28;20353;-55
2022/06/23 06:57:48;;;;;;;;;;;;;;;19.98;60.01;101070.75;5074943;28;20387;-52
2022/06/23 07:00:16;;;;;;;;;;;;;;;20.09;60.44;101069.97;5078743;28;19920;-55
2022/06/23 07:02:55;;;;;;;;;;;;;;;20.17;60.26;101071.50;5080214;28;20372;-56
2022/06/23 07:05:24;;;;;;;;;;;;;;;20.24;60.09;101076.81;5077175;28;19927;-55
2022/06/23 07:08:00;;;;;;;;;;;;;;;20.33;60.06;101065.50;5075473;28;19926;-55
2022/06/23 07:10:32;;;;;;;;;;;;;;;20.42;60.00;101074.94;5078540;28;19913;-55
2022/06/23 07:13:03;;;;;;;;;;;;;;;20.52;59.67;101074.38;5079531;28;20049;-55
2022/06/23 07:15:28;;;;;;;;;;;;;;;20.60;59.60;101071.34;5075098;28;19923;-56
2022/06/23 07:18:02;;;;;;;;;;;;;;;20.70;59.77;101060.81;5081041;28;19912;-55
2022/06/23 07:20:32;;;;;;;;;;;;;;;20.79;59.43;101072.06;5074939;28;19961;-55
2022/06/23 07:23:01;;;;;;;;;;;;;;;20.86;59.05;101074.69;5073980;28;19920;-56
2022/06/23 07:25:30;;;;;;;;;;;;;;;20.93;59.17;101080.81;5073073;28;19916;-55
2022/06/23 07:27:57;;;;;;;;;;;;;;;21.02;59.04;101085.63;5076687;28;19916;-56
2022/06/23 07:30:26;;;;;;;;;;;;;;;21.11;59.49;101090.69;5075541;28;19912;-56
2022/06/23 07:32:58;;;;;;;;;;;;;;;21.17;59.05;101085.16;5079846;28;19908;-54
2022/06/23 07:35:30;;;;;;;;;;;;;;;21.22;58.73;101081.75;5075497;28;20359;-56
2022/06/23 07:38:07;;;;;;;;;;;;;;;21.27;58.57;101088.13;5079776;28;19919;-55
2022/06/23 07:40:37;;;;;;;;;;;;;;;21.33;58.73;101084.47;5083509;28;19908;-56
2022/06/23 07:43:03;;;;;;;;;;;;;;;21.43;58.76;101072.28;5079164;28;20375;-55
2022/06/23 07:45:39;;;;;;;;;;;;;;;21.50;59.12;101068.38;5081588;28;19974;-55
2022/06/23 07:48:05;;;;;;;;;;;;;;;21.58;59.25;101067.19;5080892;28;19919;-54
2022/06/23 07:50:30;;;;;;;;;;;;;;;21.66;58.83;101072.22;5078293;28;19909;-56
2022/06/23 07:52:55;;;;;;;;;;;;;;;21.72;58.69;101070.47;5071196;28;19912;-56
2022/06/23 07:55:26;;;;;;;;;;;;;;;21.76;58.54;101074.34;5075167;28;19969;-56
2022/06/23 07:57:52;;;;;;;;;;;;;;;21.83;58.33;101083.94;5071183;28;20658;-56
2022/06/23 08:00:17;;;;;;;;;;;;;;;21.93;58.57;101081.44;5079655;28;20023;-56
2022/06/23 08:02:49;;;;;;;;;;;;;;;22.00;58.39;101084.03;5075732;28;19951;-56
2022/06/23 08:05:23;;;;;;;;;;;;;;;22.07;58.42;101070.38;5080126;28;19969;-55
2022/06/23 08:07:48;;;;;;;;;;;;;;;22.17;58.34;101074.09;5079720;28;20260;-56
2022/06/23 08:10:17;;;;;;;;;;;;;;;22.28;58.27;101080.53;5073909;28;19926;-54
2022/06/23 08:12:55;;;;;;;;;;;;;;;22.37;58.37;101076.38;5088654;28;19908;-54
2022/06/23 08:18:14;;;;;;;;;;;;;;;22.60;58.26;101071.91;5085050;28;20002;-55
2022/06/23 08:20:41;;;;;;;;;;;;;;;22.72;58.27;101064.53;5081115;28;19922;-56
2022/06/23 08:23:08;;;;;;;;;;;;;;;22.82;57.92;101056.59;5081597;28;20293;-55
2022/06/23 08:25:34;;;;;;;;;;;;;;;22.95;58.21;101055.44;5083347;28;19912;-55
2022/06/23 08:28:00;;;;;;;;;;;;;;;23.03;57.77;101058.56;5077638;28;19912;-55
2022/06/23 08:30:26;;;;;;;;;;;;;;;23.13;57.67;101055.16;5081998;28;19966;-54
2022/06/23 08:32:52;;;;;;;;;;;;;;;23.26;57.86;101056.72;5077798;28;19908;-54
2022/06/23 08:35:17;;;;;;;;;;;;;;;23.37;57.83;101058.50;5069927;28;19920;-53
2022/06/23 08:37:45;;;;;;;;;;;;;;;23.49;57.86;101048.38;5077268;28;19927;-55
2022/06/23 08:40:19;;;;;;;;;;;;;;;23.61;57.42;101054.53;5080198;28;19918;-55
2022/06/23 08:42:53;;;;;;;;;;;;;;;23.73;57.46;101057.94;5076086;28;19912;-52
2022/06/23 08:45:21;;;;;;;;;;;;;;;23.82;56.83;101058.31;5078140;28;19943;-54
2022/06/23 08:47:58;;;;;;;;;;;;;;;23.94;56.94;101053.56;5070500;28;19954;-55
2022/06/23 08:50:33;;;;;;;;;;;;;;;24.09;56.61;101055.66;5084812;28;20362;-55
2022/06/23 08:53:06;;;;;;;;;;;;;;;24.23;56.92;101061.47;5075360;28;19943;-55
2022/06/23 08:55:40;;;;;;;;;;;;;;;24.40;56.96;101057.63;5082140;28;19912;-55
2022/06/23 08:58:14;;;;;;;;;;;;;;;24.60;56.78;101061.63;5071699;28;19928;-55
2022/06/23 09:00:45;;;;;;;;;;;;;;;24.75;56.76;101059.00;5071336;28;19908;-55
2022/06/23 09:03:46;;;;;;;;;;;;;;;24.89;56.41;101059.41;5080505;28;19912;-55
2022/06/23 09:06:20;;;;;;;;;;;;;;;25.05;55.95;101057.63;5026543;28;19920;-55
2022/06/23 09:08:45;;;;;;;;;;;;;;;25.19;55.42;101047.97;5069674;28;19916;-55
2022/06/23 09:11:20;;;;;;;;;;;;;;;25.31;55.11;101048.56;5081778;28;19919;-55
2022/06/23 09:13:56;;;;;;;;;;;;;;;25.42;54.89;101049.44;5075928;28;19911;-55
2022/06/23 09:16:21;;;;;;;;;;;;;;;25.53;54.75;101048.41;5074595;28;20321;-54
2022/06/23 09:19:06;;;;;;;;;;;;;;;25.66;54.53;101049.81;5085055;28;20477;-55
2022/06/23 09:21:41;;;;;;;;;;;;;;;25.83;54.38;101047.75;5075430;28;19912;-55
2022/06/23 09:24:19;;;;;;;;;;;;;;;26.01;54.20;101038.25;5077473;28;20001;-55
2022/06/23 09:26:54;;;;;;;;;;;;;;;26.14;53.78;101038.56;5070792;28;20544;-55
2022/06/23 09:29:31;;;;;;;;;;;;;;;26.34;54.02;101037.84;5075965;28;20379;-55
2022/06/23 09:32:08;;;;;;;;;;;;;;;26.56;53.54;101040.28;5082536;28;19923;-55
2022/06/23 09:34:45;;;;;;;;;;;;;;;26.62;52.69;101043.84;5072687;28;19915;-55
2022/06/23 09:37:22;;;;;;;;;;;;;;;26.71;52.93;101042.19;5075861;28;19912;-55
2022/06/23 09:39:53;;;;;;;;;;;;;;;26.81;52.85;101025.84;5075276;28;19927;-54
2022/06/23 09:42:21;;;;;;;;;;;;;;;26.85;51.88;101035.91;5081284;28;19920;-55
2022/06/23 09:44:58;;;;;;;;;;;;;;;26.93;51.79;101022.84;5077079;28;19990;-55
2022/06/23 09:47:50;;;;;;;;;;;;;;;26.96;51.49;101025.81;5071079;28;19908;-55
2022/06/23 09:50:22;;;;;;;;;;;;;;;27.08;51.50;101025.56;5080768;28;19912;-55
2022/06/23 09:52:47;;;;;;;;;;;;;;;27.24;51.29;101029.88;5074706;28;19908;-55
2022/06/23 09:55:22;;;;;;;;;;;;;;;27.38;50.98;101030.09;5078571;28;20268;-55
2022/06/23 09:57:58;;;;;;;;;;;;;;;27.50;50.96;101018.91;5078253;28;19965;-55
2022/06/23 10:00:23;;;;;;;;;;;;;;;27.55;50.56;101011.50;5083624;28;19923;-56
2022/06/23 10:03:00;;;;;;;;;;;;;;;27.72;50.83;101008.44;5078754;28;19912;-55
2022/06/23 10:05:38;;;;;;;;;;;;;;;27.94;50.88;101017.06;5075778;28;19908;-54
2022/06/23 10:08:18;;;;;;;;;;;;;;;28.09;50.52;101013.44;5076142;28;19970;-55
2022/06/23 10:10:52;;;;;;;;;;;;;;;28.12;49.38;101018.31;5071175;28;19912;-56
2022/06/23 10:13:29;;;;;;;;;;;;;;;28.15;49.15;101016.94;5084117;28;19916;-55
2022/06/23 10:15:54;;;;;;;;;;;;;;;28.22;49.46;101007.31;5081489;28;19918;-55
2022/06/23 10:18:31;;;;;;;;;;;;;;;28.31;49.96;101011.09;5076103;28;19912;-55
2022/06/23 10:21:15;;;;;;;;;;;;;;;28.42;49.71;101011.84;5070654;28;19955;-55
2022/06/23 10:23:46;;;;;;;;;;;;;;;28.48;49.57;101016.16;5073149;28;19907;-56
2022/06/23 10:26:11;;;;;;;;;;;;;;;28.44;48.62;101009.66;5076453;28;19912;-55
2022/06/23 10:28:57;;;;;;;;;;;;;;;28.54;48.56;101001.34;5073601;28;19916;-55
2022/06/23 10:31:25;;;;;;;;;;;;;;;28.76;49.05;101008.28;5084880;28;19912;-55
2022/06/23 10:33:50;;;;;;;;;;;;;;;28.75;48.80;101015.66;5085382;28;19915;-54
2022/06/23 10:36:18;;;;;;;;;;;;;;;28.79;48.38;101000.31;5079231;28;19913;-55
2022/06/23 10:38:43;;;;;;;;;;;;;;;28.92;48.59;100999.69;5074170;28;20022;-54
2022/06/23 10:41:08;;;;;;;;;;;;;;;29.02;48.74;101003.41;5087628;28;19999;-55
2022/06/23 10:43:43;;;;;;;;;;;;;;;29.10;47.66;101000.84;5079274;28;20288;-55
2022/06/23 10:46:14;;;;;;;;;;;;;;;29.17;47.57;100986.81;5072679;28;19915;-55
2022/06/23 10:48:45;;;;;;;;;;;;;;;29.23;47.32;100989.22;5071460;28;19920;-56
2022/06/23 10:51:18;;;;;;;;;;;;;;;29.28;46.43;100993.81;5072529;28;20686;-55
2022/06/23 10:54:02;;;;;;;;;;;;;;;29.27;47.12;100990.25;5084467;28;19998;-54
2022/06/23 10:56:42;;;;;;;;;;;;;;;29.42;47.41;100985.69;5077489;28;19927;-52
2022/06/23 10:59:10;;;;;;;;;;;;;;;29.56;47.13;100983.91;5079280;28;19919;-55
2022/06/23 11:01:53;;;;;;;;;;;;;;;29.68;47.42;100978.81;5071285;28;19924;-55
2022/06/23 11:04:27;;;;;;;;;;;;;;;29.72;46.55;100985.31;5074298;28;19920;-55
2022/06/23 11:07:10;;;;;;;;;;;;;;;29.78;46.70;100975.94;5075918;28;19922;-56
2022/06/23 11:09:42;;;;;;;;;;;;;;;29.81;46.68;100985.50;5077830;28;19926;-55
2022/06/23 11:12:07;;;;;;;;;;;;;;;29.77;46.00;100985.25;5077002;28;19923;-55
2022/06/23 11:14:48;;;;;;;;;;;;;;;29.82;46.58;100982.44;5076946;28;19912;-55
2022/06/23 11:17:18;;;;;;;;;;;;;;;29.95;46.11;100977.34;5075953;28;19920;-54
2022/06/23 11:19:52;;;;;;;;;;;;;;;30.02;46.54;100975.84;5082048;28;19957;-55
2022/06/23 11:22:30;;;;;;;;;;;;;;;30.14;46.28;100972.69;5086746;28;20250;-55
2022/06/23 11:25:24;;;;;;;;;;;;;;;30.27;46.25;100973.84;5085887;28;20006;-55
2022/06/23 11:28:04;;;;;;;;;;;;;;;30.31;45.55;100969.38;5064789;28;19908;-56
2022/06/23 11:30:35;;;;;;;;;;;;;;;30.27;43.87;100969.19;5081361;28;20372;-56
2022/06/23 11:33:22;;;;;;;;;;;;;;;30.27;44.46;100971.91;5076960;28;19958;-55
2022/06/23 11:35:56;;;;;;;;;;;;;;;30.10;43.26;100974.41;5081228;28;19957;-56
2022/06/23 11:38:36;;;;;;;;;;;;;;;29.84;43.03;100965.72;5079517;28;19919;-56
2022/06/23 11:41:22;;;;;;;;;;;;;;;29.86;44.01;100966.25;5078725;28;19912;-54
2022/06/23 11:44:05;;;;;;;;;;;;;;;30.08;44.51;100954.72;5075267;28;19963;-55
2022/06/23 11:46:35;;;;;;;;;;;;;;;30.27;44.06;100969.19;5073485;28;19951;-56
2022/06/23 11:49:09;;;;;;;;;;;;;;;30.30;44.19;100962.28;5075106;28;20367;-54
2022/06/23 11:51:34;;;;;;;;;;;;;;;30.35;44.57;100963.00;5078102;28;19916;-54
2022/06/23 11:54:11;;;;;;;;;;;;;;;30.28;44.69;100961.78;5074665;28;21183;-56
2022/06/23 11:56:39;;;;;;;;;;;;;;;30.19;43.97;100967.13;5076938;28;19915;-55
2022/06/23 11:59:23;;;;;;;;;;;;;;;30.11;43.36;100956.84;5075083;28;19947;-54
2022/06/23 12:01:48;;;;;;;;;;;;;;;30.08;43.55;100954.72;5079653;28;20042;-56
2022/06/23 12:04:16;;;;;;;;;;;;;;;30.01;43.83;100951.50;5079601;28;20480;-55
2022/06/23 12:07:06;;;;;;;;;;;;;;;30.05;43.55;100953.38;5081433;28;20478;-55
2022/06/23 12:09:31;;;;;;;;;;;;;;;30.16;44.33;100945.81;5078838;28;20149;-56
2022/06/23 12:11:58;;;;;;;;;;;;;;;30.15;43.44;100945.00;5078911;28;20063;-54
2022/06/23 12:14:24;;;;;;;;;;;;;;;30.23;43.81;100946.22;5076402;28;20234;-54
2022/06/23 12:17:08;;;;;;;;;;;;;;;30.29;43.49;100942.28;5077028;28;19931;-56
2022/06/23 12:19:44;;;;;;;;;;;;;;;30.45;43.91;100943.66;5080382;28;19916;-55
2022/06/23 12:22:25;;;;;;;;;;;;;;;30.52;43.51;100944.09;5076417;28;20368;-55
2022/06/23 12:25:03;;;;;;;;;;;;;;;30.61;43.79;100938.72;5076504;28;20390;-55
2022/06/23 12:27:41;;;;;;;;;;;;;;;30.75;43.42;100938.78;5071379;28;20418;-55
2022/06/23 12:30:09;;;;;;;;;;;;;;;30.88;41.46;100945.38;5079895;28;19912;-54
2022/06/23 12:32:53;;;;;;;;;;;;;;;30.82;41.93;100934.50;5070348;28;19920;-55
2022/06/23 12:35:24;;;;;;;;;;;;;;;30.99;42.07;100927.63;5080889;28;19916;-55
2022/06/23 12:37:55;;;;;;;;;;;;;;;31.22;41.96;100934.00;5071704;28;19962;-55
2022/06/23 12:40:34;;;;;;;;;;;;;;;31.29;41.17;100934.44;5083274;28;20360;-54
2022/06/23 12:43:22;;;;;;;;;;;;;;;31.08;40.20;100929.31;5082507;28;19916;-53
2022/06/23 12:45:53;;;;;;;;;;;;;;;30.95;40.88;100923.84;5077569;28;19912;-55
2022/06/23 12:48:19;;;;;;;;;;;;;;;30.82;40.27;100922.72;5080485;28;19916;-53
2022/06/23 12:50:44;;;;;;;;;;;;;;;30.63;40.91;100928.28;5077039;28;19908;-53